sensor_id;sensor_type;location;lat;lon;timestamp;pressure;altitude;pressure_sealevel;temperature;humidity
62126;BME280;48112;53.282;6.150;2022-11-15T00:00:43;101001.69;;;16.94;62.15
62126;BME280;48112;53.282;6.150;2022-11-15T00:02:03;101010.66;;;16.94;62.09
62126;BME280;48112;53.282;6.150;2022-11-15T00:03:27;101010.28;;;16.96;62.10
62126;BME280;48112;53.282;6.150;2022-11-15T00:04:50;101015.75;;;16.96;62.14
62126;BME280;48112;53.282;6.150;2022-11-15T00:06:11;101015.75;;;16.96;62.26
62126;BME280;48112;53.282;6.150;2022-11-15T00:07:33;101010.28;;;16.96;62.16
62126;BME280;48112;53.282;6.150;2022-11-15T00:09:13;101008.31;;;16.93;62.13
62126;BME280;48112;53.282;6.150;2022-11-15T00:10:35;101013.38;;;16.94;62.22
62126;BME280;48112;53.282;6.150;2022-11-15T00:11:55;101006.00;;;16.95;62.26
62126;BME280;48112;53.282;6.150;2022-11-15T00:13:17;101000.13;;;16.93;62.17
62126;BME280;48112;53.282;6.150;2022-11-15T00:14:38;101008.72;;;16.95;62.01
62126;BME280;48112;53.282;6.150;2022-11-15T00:16:00;100998.97;;;16.94;61.93
62126;BME280;48112;53.282;6.150;2022-11-15T00:17:21;101004.41;;;16.94;62.09
62126;BME280;48112;53.282;6.150;2022-11-15T00:18:42;101012.22;;;16.95;62.28
62126;BME280;48112;53.282;6.150;2022-11-15T00:20:11;101008.72;;;16.95;62.10
62126;BME280;48112;53.282;6.150;2022-11-15T00:21:32;101008.72;;;16.95;62.08
62126;BME280;48112;53.282;6.150;2022-11-15T00:22:52;101008.72;;;16.95;62.34
62126;BME280;48112;53.282;6.150;2022-11-15T00:24:14;101006.00;;;16.95;62.17
62126;BME280;48112;53.282;6.150;2022-11-15T00:25:35;101004.03;;;16.95;62.20
62126;BME280;48112;53.282;6.150;2022-11-15T00:26:56;100998.59;;;16.95;62.18
62126;BME280;48112;53.282;6.150;2022-11-15T00:28:17;100997.81;;;16.95;62.02
62126;BME280;48112;53.282;6.150;2022-11-15T00:29:37;101008.72;;;16.95;62.25
62126;BME280;48112;53.282;6.150;2022-11-15T00:31:05;101002.09;;;16.96;61.96
62126;BME280;48112;53.282;6.150;2022-11-15T00:32:30;101006.00;;;16.95;61.95
62126;BME280;48112;53.282;6.150;2022-11-15T00:33:51;101003.28;;;16.95;62.12
62126;BME280;48112;53.282;6.150;2022-11-15T00:35:13;100998.59;;;16.95;62.42
62126;BME280;48112;53.282;6.150;2022-11-15T00:36:34;101000.53;;;16.95;62.10
62126;BME280;48112;53.282;6.150;2022-11-15T00:37:55;101004.03;;;16.95;62.19
62126;BME280;48112;53.282;6.150;2022-11-15T00:39:15;100988.72;;;16.77;62.53
62126;BME280;48112;53.282;6.150;2022-11-15T00:40:36;100993.47;;;16.87;62.24
62126;BME280;48112;53.282;6.150;2022-11-15T00:41:58;100990.00;;;16.90;62.16
62126;BME280;48112;53.282;6.150;2022-11-15T00:43:19;100990.41;;;16.92;62.25
62126;BME280;48112;53.282;6.150;2022-11-15T00:44:39;100986.09;;;16.91;62.14
62126;BME280;48112;53.282;6.150;2022-11-15T00:46:01;100993.13;;;16.92;62.16
62126;BME280;48112;53.282;6.150;2022-11-15T00:47:22;100976.75;;;16.92;61.97
62126;BME280;48112;53.282;6.150;2022-11-15T00:48:43;100982.22;;;16.92;62.14
62126;BME280;48112;53.282;6.150;2022-11-15T00:50:05;100974.41;;;16.94;62.13
62126;BME280;48112;53.282;6.150;2022-11-15T00:51:27;100986.50;;;16.93;62.25
62126;BME280;48112;53.282;6.150;2022-11-15T00:52:49;100983.78;;;16.93;61.99
62126;BME280;48112;53.282;6.150;2022-11-15T00:54:09;100976.75;;;16.92;62.07
62126;BME280;48112;53.282;6.150;2022-11-15T00:55:30;100969.34;;;16.92;61.99
62126;BME280;48112;53.282;6.150;2022-11-15T00:56:50;100965.84;;;16.92;62.18
62126;BME280;48112;53.282;6.150;2022-11-15T00:58:11;100965.84;;;16.92;62.02
62126;BME280;48112;53.282;6.150;2022-11-15T00:59:33;100966.63;;;16.92;62.13
62126;BME280;48112;53.282;6.150;2022-11-15T01:00:54;100960.41;;;16.92;62.05
62126;BME280;48112;53.282;6.150;2022-11-15T01:02:16;100959.22;;;16.93;62.15
62126;BME280;48112;53.282;6.150;2022-11-15T01:03:38;100954.16;;;16.91;62.15
62126;BME280;48112;53.282;6.150;2022-11-15T01:04:59;100959.22;;;16.93;62.08
62126;BME280;48112;53.282;6.150;2022-11-15T01:06:21;100956.50;;;16.93;62.12
62126;BME280;48112;53.282;6.150;2022-11-15T01:07:44;100959.22;;;16.93;62.27
62126;BME280;48112;53.282;6.150;2022-11-15T01:09:05;100956.50;;;16.93;62.09
62126;BME280;48112;53.282;6.150;2022-11-15T01:10:26;100953.78;;;16.93;62.25
62126;BME280;48112;53.282;6.150;2022-11-15T01:11:46;100954.94;;;16.92;62.02
62126;BME280;48112;53.282;6.150;2022-11-15T01:13:08;100956.50;;;16.93;62.16
62126;BME280;48112;53.282;6.150;2022-11-15T01:14:28;100943.63;;;16.90;62.29
62126;BME280;48112;53.282;6.150;2022-11-15T01:15:49;100949.50;;;16.92;62.08
62126;BME280;48112;53.282;6.150;2022-11-15T01:17:09;100949.50;;;16.92;62.24
62126;BME280;48112;53.282;6.150;2022-11-15T01:18:31;100943.63;;;16.90;62.35
62126;BME280;48112;53.282;6.150;2022-11-15T01:19:52;100941.31;;;16.92;62.17
62126;BME280;48112;53.282;6.150;2022-11-15T01:21:14;100934.69;;;16.93;62.08
62126;BME280;48112;53.282;6.150;2022-11-15T01:22:36;100944.78;;;16.92;62.06
62126;BME280;48112;53.282;6.150;2022-11-15T01:23:58;100944.03;;;16.92;62.11
62126;BME280;48112;53.282;6.150;2022-11-15T01:25:20;100935.44;;;16.90;62.03
62126;BME280;48112;53.282;6.150;2022-11-15T01:26:41;100936.59;;;16.89;62.01
62126;BME280;48112;53.282;6.150;2022-11-15T01:28:02;100943.25;;;16.91;61.99
62126;BME280;48112;53.282;6.150;2022-11-15T01:29:23;100931.94;;;16.93;62.00
62126;BME280;48112;53.282;6.150;2022-11-15T01:30:44;100933.13;;;16.92;62.25
62126;BME280;48112;53.282;6.150;2022-11-15T01:32:04;100938.56;;;16.92;62.23
62126;BME280;48112;53.282;6.150;2022-11-15T01:33:26;100933.88;;;16.92;62.08
62126;BME280;48112;53.282;6.150;2022-11-15T01:34:46;100933.88;;;16.92;62.16
62126;BME280;48112;53.282;6.150;2022-11-15T01:36:11;100925.72;;;16.92;62.13
62126;BME280;48112;53.282;6.150;2022-11-15T01:37:32;100922.22;;;16.92;62.21
62126;BME280;48112;53.282;6.150;2022-11-15T01:38:55;100927.66;;;16.92;62.10
62126;BME280;48112;53.282;6.150;2022-11-15T01:40:18;100929.22;;;16.93;62.14
62126;BME280;48112;53.282;6.150;2022-11-15T01:41:39;100922.22;;;16.92;61.93
62126;BME280;48112;53.282;6.150;2022-11-15T01:42:59;100916.34;;;16.90;62.46
62126;BME280;48112;53.282;6.150;2022-11-15T01:44:42;100912.81;;;16.86;62.22
62126;BME280;48112;53.282;6.150;2022-11-15T01:46:06;100913.63;;;16.90;62.15
62126;BME280;48112;53.282;6.150;2022-11-15T01:47:35;100925.31;;;16.90;62.17
62126;BME280;48112;53.282;6.150;2022-11-15T01:49:01;100913.63;;;16.90;62.32
62126;BME280;48112;53.282;6.150;2022-11-15T01:50:25;100928.81;;;16.91;62.28
62126;BME280;48112;53.282;6.150;2022-11-15T01:51:48;100919.88;;;16.90;62.26
62126;BME280;48112;53.282;6.150;2022-11-15T01:53:08;100930.00;;;16.90;62.23
62126;BME280;48112;53.282;6.150;2022-11-15T01:54:31;100928.06;;;16.90;62.16
62126;BME280;48112;53.282;6.150;2022-11-15T01:55:53;100926.09;;;16.91;62.11
62126;BME280;48112;53.282;6.150;2022-11-15T01:57:14;100917.50;;;16.89;62.21
62126;BME280;48112;53.282;6.150;2022-11-15T01:58:35;100915.19;;;16.91;62.12
62126;BME280;48112;53.282;6.150;2022-11-15T01:59:59;100914.00;;;16.88;61.94
62126;BME280;48112;53.282;6.150;2022-11-15T02:01:20;100914.41;;;16.90;62.26
62126;BME280;48112;53.282;6.150;2022-11-15T02:02:42;100910.91;;;16.90;62.19
62126;BME280;48112;53.282;6.150;2022-11-15T02:04:08;100915.19;;;16.91;62.09
62126;BME280;48112;53.282;6.150;2022-11-15T02:05:31;100921.00;;;16.89;62.27
62126;BME280;48112;53.282;6.150;2022-11-15T02:06:53;100922.94;;;16.89;62.44
62126;BME280;48112;53.282;6.150;2022-11-15T02:08:14;100924.53;;;16.90;62.00
62126;BME280;48112;53.282;6.150;2022-11-15T02:09:40;100934.66;;;16.89;62.30
62126;BME280;48112;53.282;6.150;2022-11-15T02:11:07;100928.41;;;16.89;62.15
62126;BME280;48112;53.282;6.150;2022-11-15T02:12:29;100931.13;;;16.89;62.36
62126;BME280;48112;53.282;6.150;2022-11-15T02:13:51;100919.06;;;16.90;62.24
62126;BME280;48112;53.282;6.150;2022-11-15T02:15:12;100919.88;;;16.90;62.21
62126;BME280;48112;53.282;6.150;2022-11-15T02:16:41;100914.78;;;16.89;62.11
62126;BME280;48112;53.282;6.150;2022-11-15T02:18:10;100905.03;;;16.88;62.12
62126;BME280;48112;53.282;6.150;2022-11-15T02:19:57;100908.13;;;16.83;62.17
62126;BME280;48112;53.282;6.150;2022-11-15T02:21:30;100901.13;;;16.85;62.31
62126;BME280;48112;53.282;6.150;2022-11-15T02:25:02;100897.59;;;16.81;62.26
62126;BME280;48112;53.282;6.150;2022-11-15T02:26:52;100893.69;;;16.79;62.31
62126;BME280;48112;53.282;6.150;2022-11-15T02:28:53;100893.63;;;16.72;62.37
62126;BME280;48112;53.282;6.150;2022-11-15T02:30:33;100894.06;;;16.77;62.37
62126;BME280;48112;53.282;6.150;2022-11-15T02:32:02;100895.25;;;16.80;62.33
62126;BME280;48112;53.282;6.150;2022-11-15T02:33:32;100897.59;;;16.81;62.20
62126;BME280;48112;53.282;6.150;2022-11-15T02:35:01;100899.94;;;16.83;62.04
62126;BME280;48112;53.282;6.150;2022-11-15T02:36:33;100894.84;;;16.81;62.28
62126;BME280;48112;53.282;6.150;2022-11-15T02:37:58;100903.84;;;16.82;62.29
62126;BME280;48112;53.282;6.150;2022-11-15T02:39:26;100897.22;;;16.83;62.13
62126;BME280;48112;53.282;6.150;2022-11-15T02:40:53;100895.66;;;16.82;62.25
62126;BME280;48112;53.282;6.150;2022-11-15T02:42:19;100890.59;;;16.84;62.23
62126;BME280;48112;53.282;6.150;2022-11-15T02:44:03;100889.78;;;16.80;62.46
62126;BME280;48112;53.282;6.150;2022-11-15T02:45:30;100889.41;;;16.81;62.31
62126;BME280;48112;53.282;6.150;2022-11-15T02:46:54;100886.28;;;16.83;62.38
62126;BME280;48112;53.282;6.150;2022-11-15T02:48:44;100887.06;;;16.80;62.30
62126;BME280;48112;53.282;6.150;2022-11-15T02:50:08;100895.66;;;16.82;62.40
62126;BME280;48112;53.282;6.150;2022-11-15T02:51:28;100896.44;;;16.82;62.35
62126;BME280;48112;53.282;6.150;2022-11-15T02:52:50;100899.16;;;16.82;62.55
62126;BME280;48112;53.282;6.150;2022-11-15T02:54:13;100893.34;;;16.84;62.24
62126;BME280;48112;53.282;6.150;2022-11-15T02:55:37;100892.53;;;16.83;62.31
62126;BME280;48112;53.282;6.150;2022-11-15T02:57:03;100893.34;;;16.84;62.34
62126;BME280;48112;53.282;6.150;2022-11-15T02:58:44;100881.19;;;16.78;62.30
62126;BME280;48112;53.282;6.150;2022-11-15T03:00:10;100883.19;;;16.81;62.36
62126;BME280;48112;53.282;6.150;2022-11-15T03:01:41;100874.59;;;16.79;62.27
62126;BME280;48112;53.282;6.150;2022-11-15T03:03:30;100872.63;;;16.76;62.35
62126;BME280;48112;53.282;6.150;2022-11-15T03:05:04;100865.25;;;16.80;62.34
62126;BME280;48112;53.282;6.150;2022-11-15T03:06:35;100860.97;;;16.79;62.43
62126;BME280;48112;53.282;6.150;2022-11-15T03:08:02;100870.69;;;16.80;62.32
62126;BME280;48112;53.282;6.150;2022-11-15T03:09:31;100870.69;;;16.80;62.26
62126;BME280;48112;53.282;6.150;2022-11-15T03:11:03;100852.78;;;16.79;62.19
62126;BME280;48112;53.282;6.150;2022-11-15T03:12:27;100859.00;;;16.79;62.29
62126;BME280;48112;53.282;6.150;2022-11-15T03:13:57;100863.69;;;16.79;62.30
62126;BME280;48112;53.282;6.150;2022-11-15T03:15:21;100866.84;;;16.81;62.28
62126;BME280;48112;53.282;6.150;2022-11-15T03:16:49;100862.53;;;16.80;62.08
62126;BME280;48112;53.282;6.150;2022-11-15T03:18:17;100852.00;;;16.78;62.18
62126;BME280;48112;53.282;6.150;2022-11-15T03:19:44;100852.78;;;16.79;62.40
62126;BME280;48112;53.282;6.150;2022-11-15T03:21:08;100841.88;;;16.79;62.48
62126;BME280;48112;53.282;6.150;2022-11-15T03:22:35;100843.44;;;16.80;62.32
62126;BME280;48112;53.282;6.150;2022-11-15T03:24:01;100844.22;;;16.80;62.33
62126;BME280;48112;53.282;6.150;2022-11-15T03:25:26;100838.78;;;16.80;62.21
62126;BME280;48112;53.282;6.150;2022-11-15T03:26:49;100853.19;;;16.81;62.26
62126;BME280;48112;53.282;6.150;2022-11-15T03:28:14;100847.75;;;16.81;62.35
62126;BME280;48112;53.282;6.150;2022-11-15T03:29:39;100845.78;;;16.81;62.28
62126;BME280;48112;53.282;6.150;2022-11-15T03:31:03;100845.03;;;16.81;62.20
62126;BME280;48112;53.282;6.150;2022-11-15T03:32:49;100840.31;;;16.78;62.59
62126;BME280;48112;53.282;6.150;2022-11-15T03:34:19;100841.88;;;16.79;62.20
62126;BME280;48112;53.282;6.150;2022-11-15T03:35:42;100848.88;;;16.80;62.28
62126;BME280;48112;53.282;6.150;2022-11-15T03:37:06;100849.69;;;16.80;62.31
62126;BME280;48112;53.282;6.150;2022-11-15T03:38:29;100844.22;;;16.80;62.14
62126;BME280;48112;53.282;6.150;2022-11-15T03:39:53;100848.09;;;16.79;62.21
62126;BME280;48112;53.282;6.150;2022-11-15T03:41:17;100853.19;;;16.81;62.15
62126;BME280;48112;53.282;6.150;2022-11-15T03:42:43;100846.94;;;16.80;62.19
62126;BME280;48112;53.282;6.150;2022-11-15T03:44:13;100850.81;;;16.79;62.19
62126;BME280;48112;53.282;6.150;2022-11-15T03:45:40;100847.34;;;16.79;62.11
62126;BME280;48112;53.282;6.150;2022-11-15T03:47:09;100841.88;;;16.79;62.40
62126;BME280;48112;53.282;6.150;2022-11-15T03:48:35;100843.81;;;16.78;62.37
62126;BME280;48112;53.282;6.150;2022-11-15T03:49:59;100833.28;;;16.77;62.36
62126;BME280;48112;53.282;6.150;2022-11-15T03:51:22;100837.19;;;16.79;62.36
62126;BME280;48112;53.282;6.150;2022-11-15T03:52:44;100831.38;;;16.81;62.31
62126;BME280;48112;53.282;6.150;2022-11-15T03:54:06;100833.31;;;16.80;62.21
62126;BME280;48112;53.282;6.150;2022-11-15T03:55:27;100829.81;;;16.80;62.06
62126;BME280;48112;53.282;6.150;2022-11-15T03:56:48;100827.88;;;16.80;62.29
62126;BME280;48112;53.282;6.150;2022-11-15T03:58:08;100818.09;;;16.79;62.21
62126;BME280;48112;53.282;6.150;2022-11-15T03:59:30;100825.13;;;16.80;62.31
62126;BME280;48112;53.282;6.150;2022-11-15T04:00:50;100832.53;;;16.80;62.20
62126;BME280;48112;53.282;6.150;2022-11-15T04:02:12;100825.53;;;16.79;62.18
62126;BME280;48112;53.282;6.150;2022-11-15T04:03:34;100821.22;;;16.81;62.30
62126;BME280;48112;53.282;6.150;2022-11-15T04:04:55;100817.75;;;16.81;62.21
62126;BME280;48112;53.282;6.150;2022-11-15T04:06:17;100814.22;;;16.80;62.29
62126;BME280;48112;53.282;6.150;2022-11-15T04:07:38;100816.16;;;16.80;62.25
62126;BME280;48112;53.282;6.150;2022-11-15T04:08:59;100812.28;;;16.81;62.20
62126;BME280;48112;53.282;6.150;2022-11-15T04:10:20;100819.69;;;16.80;62.20
62126;BME280;48112;53.282;6.150;2022-11-15T04:11:41;100820.47;;;16.81;62.09
62126;BME280;48112;53.282;6.150;2022-11-15T04:13:03;100816.97;;;16.80;62.39
62126;BME280;48112;53.282;6.150;2022-11-15T04:14:24;100821.63;;;16.80;62.17
62126;BME280;48112;53.282;6.150;2022-11-15T04:15:44;100823.19;;;16.81;62.21
62126;BME280;48112;53.282;6.150;2022-11-15T04:17:06;100817.75;;;16.81;62.27
62126;BME280;48112;53.282;6.150;2022-11-15T04:18:26;100818.91;;;16.80;62.12
62126;BME280;48112;53.282;6.150;2022-11-15T04:19:49;100816.16;;;16.80;62.21
62126;BME280;48112;53.282;6.150;2022-11-15T04:21:27;100818.41;;;16.60;62.75
62126;BME280;48112;53.282;6.150;2022-11-15T04:23:09;100826.25;;;16.72;62.28
62126;BME280;48112;53.282;6.150;2022-11-15T04:24:49;100820.81;;;16.72;62.31
62126;BME280;48112;53.282;6.150;2022-11-15T04:26:12;100819.25;;;16.75;62.29
62126;BME280;48112;53.282;6.150;2022-11-15T04:27:35;100819.25;;;16.75;62.52
62126;BME280;48112;53.282;6.150;2022-11-15T04:28:56;100824.72;;;16.75;62.14
62126;BME280;48112;53.282;6.150;2022-11-15T04:30:35;100818.50;;;16.74;62.36
62126;BME280;48112;53.282;6.150;2022-11-15T04:31:56;100825.50;;;16.75;62.17
62126;BME280;48112;53.282;6.150;2022-11-15T04:33:17;100821.97;;;16.75;62.16
62126;BME280;48112;53.282;6.150;2022-11-15T04:34:38;100827.84;;;16.77;62.27
62126;BME280;48112;53.282;6.150;2022-11-15T04:36:01;100820.44;;;16.77;62.50
62126;BME280;48112;53.282;6.150;2022-11-15T04:37:40;100823.16;;;16.74;62.37
62126;BME280;48112;53.282;6.150;2022-11-15T04:39:08;100820.84;;;16.76;62.38
62126;BME280;48112;53.282;6.150;2022-11-15T04:40:28;100824.31;;;16.76;62.25
62126;BME280;48112;53.282;6.150;2022-11-15T04:41:50;100831.75;;;16.76;62.43
62126;BME280;48112;53.282;6.150;2022-11-15T04:43:10;100828.22;;;16.75;62.49
62126;BME280;48112;53.282;6.150;2022-11-15T04:44:31;100827.06;;;16.76;62.35
62126;BME280;48112;53.282;6.150;2022-11-15T04:45:51;100826.94;;;16.59;62.41
62126;BME280;48112;53.282;6.150;2022-11-15T04:47:12;100826.25;;;16.69;62.51
62126;BME280;48112;53.282;6.150;2022-11-15T04:48:34;100820.81;;;16.72;62.33
62126;BME280;48112;53.282;6.150;2022-11-15T04:49:54;100820.44;;;16.74;62.26
62126;BME280;48112;53.282;6.150;2022-11-15T04:51:17;100819.25;;;16.75;62.25
62126;BME280;48112;53.282;6.150;2022-11-15T04:52:38;100812.25;;;16.74;62.35
62126;BME280;48112;53.282;6.150;2022-11-15T04:53:59;100822.75;;;16.72;62.46
62126;BME280;48112;53.282;6.150;2022-11-15T04:55:21;100824.72;;;16.75;62.25
62126;BME280;48112;53.282;6.150;2022-11-15T04:56:42;100826.28;;;16.76;61.82
62126;BME280;48112;53.282;6.150;2022-11-15T04:58:02;100817.69;;;16.74;62.25
62126;BME280;48112;53.282;6.150;2022-11-15T04:59:24;100815.75;;;16.74;62.05
62126;BME280;48112;53.282;6.150;2022-11-15T05:00:45;100818.09;;;16.76;62.26
62126;BME280;48112;53.282;6.150;2022-11-15T05:02:07;100811.88;;;16.75;62.26
62126;BME280;48112;53.282;6.150;2022-11-15T05:03:27;100812.25;;;16.74;62.34
62126;BME280;48112;53.282;6.150;2022-11-15T05:05:02;100813.81;;;16.75;62.38
62126;BME280;48112;53.282;6.150;2022-11-15T05:06:25;100798.22;;;16.75;62.21
62126;BME280;48112;53.282;6.150;2022-11-15T05:07:45;100802.91;;;16.75;62.13
62126;BME280;48112;53.282;6.150;2022-11-15T05:09:07;100797.44;;;16.75;62.30
62126;BME280;48112;53.282;6.150;2022-11-15T05:10:27;100808.34;;;16.75;62.19
62126;BME280;48112;53.282;6.150;2022-11-15T05:11:49;100801.75;;;16.76;62.23
62126;BME280;48112;53.282;6.150;2022-11-15T05:13:09;100804.47;;;16.76;62.45
62126;BME280;48112;53.282;6.150;2022-11-15T05:14:31;100803.69;;;16.75;62.39
62126;BME280;48112;53.282;6.150;2022-11-15T05:15:51;100805.63;;;16.75;62.37
62126;BME280;48112;53.282;6.150;2022-11-15T05:17:12;100799.78;;;16.76;62.24
62126;BME280;48112;53.282;6.150;2022-11-15T05:18:34;100804.47;;;16.76;62.29
62126;BME280;48112;53.282;6.150;2022-11-15T05:19:54;100790.06;;;16.75;62.39
62126;BME280;48112;53.282;6.150;2022-11-15T05:21:16;100793.56;;;16.76;62.18
62126;BME280;48112;53.282;6.150;2022-11-15T05:22:38;100797.84;;;16.77;62.26
62126;BME280;48112;53.282;6.150;2022-11-15T05:24:00;100798.22;;;16.75;62.07
62126;BME280;48112;53.282;6.150;2022-11-15T05:25:20;100799.03;;;16.76;62.21
62126;BME280;48112;53.282;6.150;2022-11-15T05:26:41;100796.28;;;16.76;62.23
62126;BME280;48112;53.282;6.150;2022-11-15T05:28:03;100800.56;;;16.77;62.26
62126;BME280;48112;53.282;6.150;2022-11-15T05:29:24;100806.03;;;16.77;62.15
62126;BME280;48112;53.282;6.150;2022-11-15T05:30:45;100795.13;;;16.77;62.25
62126;BME280;48112;53.282;6.150;2022-11-15T05:32:06;100803.31;;;16.77;62.25
62126;BME280;48112;53.282;6.150;2022-11-15T05:33:27;100799.03;;;16.76;62.32
62126;BME280;48112;53.282;6.150;2022-11-15T05:34:48;100798.22;;;16.75;62.24
62126;BME280;48112;53.282;6.150;2022-11-15T05:36:14;100810.69;;;16.76;62.17
62126;BME280;48112;53.282;6.150;2022-11-15T05:37:40;100809.94;;;16.76;62.16
62126;BME280;48112;53.282;6.150;2022-11-15T05:39:02;100807.19;;;16.76;62.24
62126;BME280;48112;53.282;6.150;2022-11-15T05:40:24;100816.16;;;16.76;62.29
62126;BME280;48112;53.282;6.150;2022-11-15T05:41:47;100807.97;;;16.76;62.35
62126;BME280;48112;53.282;6.150;2022-11-15T05:43:10;100807.19;;;16.76;62.20
62126;BME280;48112;53.282;6.150;2022-11-15T05:44:31;100809.94;;;16.76;62.26
62126;BME280;48112;53.282;6.150;2022-11-15T05:45:52;100811.47;;;16.77;62.11
62126;BME280;48112;53.282;6.150;2022-11-15T05:47:16;100811.47;;;16.77;62.20
62126;BME280;48112;53.282;6.150;2022-11-15T05:48:40;100806.03;;;16.77;62.26
62126;BME280;48112;53.282;6.150;2022-11-15T05:50:03;100803.28;;;16.73;62.40
62126;BME280;48112;53.282;6.150;2022-11-15T05:51:26;100804.47;;;16.76;62.26
62126;BME280;48112;53.282;6.150;2022-11-15T05:52:50;100806.03;;;16.77;62.19
62126;BME280;48112;53.282;6.150;2022-11-15T05:54:12;100808.34;;;16.75;62.12
62126;BME280;48112;53.282;6.150;2022-11-15T05:55:33;100807.19;;;16.76;62.28
62126;BME280;48112;53.282;6.150;2022-11-15T05:56:54;100802.50;;;16.76;62.13
62126;BME280;48112;53.282;6.150;2022-11-15T05:58:16;100812.66;;;16.76;62.17
62126;BME280;48112;53.282;6.150;2022-11-15T05:59:37;100804.47;;;16.76;62.41
62126;BME280;48112;53.282;6.150;2022-11-15T06:01:00;100804.47;;;16.76;62.25
62126;BME280;48112;53.282;6.150;2022-11-15T06:04:59;100801.69;;;16.69;62.45
62126;BME280;48112;53.282;6.150;2022-11-15T06:06:21;100800.56;;;16.70;62.40
62126;BME280;48112;53.282;6.150;2022-11-15T06:07:42;100812.63;;;16.72;62.41
62126;BME280;48112;53.282;6.150;2022-11-15T06:09:05;100807.97;;;16.73;62.28
62126;BME280;48112;53.282;6.150;2022-11-15T06:10:26;100810.69;;;16.73;62.30
62126;BME280;48112;53.282;6.150;2022-11-15T06:11:48;100812.25;;;16.74;62.27
62126;BME280;48112;53.282;6.150;2022-11-15T06:13:09;100811.47;;;16.73;62.32
62126;BME280;48112;53.282;6.150;2022-11-15T06:14:31;100806.78;;;16.74;62.17
62126;BME280;48112;53.282;6.150;2022-11-15T06:15:55;100811.47;;;16.73;62.22
62126;BME280;48112;53.282;6.150;2022-11-15T06:17:16;100808.72;;;16.73;62.32
62126;BME280;48112;53.282;6.150;2022-11-15T06:18:38;100808.75;;;16.70;62.19
62126;BME280;48112;53.282;6.150;2022-11-15T06:19:59;100817.69;;;16.74;62.40
62126;BME280;48112;53.282;6.150;2022-11-15T06:21:21;100812.25;;;16.74;62.18
62126;BME280;48112;53.282;6.150;2022-11-15T06:22:43;100811.47;;;16.73;62.22
62126;BME280;48112;53.282;6.150;2022-11-15T06:24:06;100819.25;;;16.75;62.16
62126;BME280;48112;53.282;6.150;2022-11-15T06:25:28;100827.81;;;16.73;62.14
62126;BME280;48112;53.282;6.150;2022-11-15T06:26:49;100819.63;;;16.73;62.36
62126;BME280;48112;53.282;6.150;2022-11-15T06:28:11;100824.72;;;16.75;62.21
62126;BME280;48112;53.282;6.150;2022-11-15T06:29:31;100824.72;;;16.75;62.35
62126;BME280;48112;53.282;6.150;2022-11-15T06:30:53;100822.38;;;16.73;62.29
62126;BME280;48112;53.282;6.150;2022-11-15T06:32:13;100820.72;;;16.55;62.53
62126;BME280;48112;53.282;6.150;2022-11-15T06:33:34;100822.34;;;16.66;62.44
62126;BME280;48112;53.282;6.150;2022-11-15T06:34:56;100829.75;;;16.69;62.43
62126;BME280;48112;53.282;6.150;2022-11-15T06:36:16;100827.34;;;16.54;62.76
62126;BME280;48112;53.282;6.150;2022-11-15T06:37:37;100819.22;;;16.64;62.49
62126;BME280;48112;53.282;6.150;2022-11-15T06:38:59;100821.16;;;16.67;62.44
62126;BME280;48112;53.282;6.150;2022-11-15T06:40:22;100820.78;;;16.69;62.21
62126;BME280;48112;53.282;6.150;2022-11-15T06:41:43;100825.44;;;16.68;62.33
62126;BME280;48112;53.282;6.150;2022-11-15T06:43:05;100818.06;;;16.69;62.13
62126;BME280;48112;53.282;6.150;2022-11-15T06:44:26;100820.78;;;16.69;62.38
62126;BME280;48112;53.282;6.150;2022-11-15T06:45:47;100827.81;;;16.70;62.32
62126;BME280;48112;53.282;6.150;2022-11-15T06:47:07;100820.78;;;16.69;62.45
62126;BME280;48112;53.282;6.150;2022-11-15T06:48:29;100825.84;;;16.70;62.49
62126;BME280;48112;53.282;6.150;2022-11-15T06:49:51;100830.53;;;16.70;62.48
62126;BME280;48112;53.282;6.150;2022-11-15T06:51:12;100827.03;;;16.69;62.44
62126;BME280;48112;53.282;6.150;2022-11-15T06:52:33;100837.94;;;16.69;62.35
62126;BME280;48112;53.282;6.150;2022-11-15T06:53:55;100827.81;;;16.70;62.46
62126;BME280;48112;53.282;6.150;2022-11-15T06:55:16;100827.03;;;16.69;62.39
62126;BME280;48112;53.282;6.150;2022-11-15T06:56:39;100830.94;;;16.72;62.56
62126;BME280;48112;53.282;6.150;2022-11-15T06:58:00;100841.06;;;16.71;62.49
62126;BME280;48112;53.282;6.150;2022-11-15T06:59:20;100842.22;;;16.70;62.37
62126;BME280;48112;53.282;6.150;2022-11-15T07:00:42;100844.94;;;16.70;62.42
62126;BME280;48112;53.282;6.150;2022-11-15T07:02:03;100843.78;;;16.71;62.39
62126;BME280;48112;53.282;6.150;2022-11-15T07:03:24;100839.50;;;16.70;62.42
62126;BME280;48112;53.282;6.150;2022-11-15T07:04:45;100841.81;;;16.72;62.49
62126;BME280;48112;53.282;6.150;2022-11-15T07:06:07;100844.19;;;16.70;62.43
62126;BME280;48112;53.282;6.150;2022-11-15T07:07:29;100836.75;;;16.70;62.45
62126;BME280;48112;53.282;6.150;2022-11-15T07:08:49;100839.88;;;16.69;62.36
62126;BME280;48112;53.282;6.150;2022-11-15T07:10:11;100847.28;;;16.72;62.54
62126;BME280;48112;53.282;6.150;2022-11-15T07:11:33;100842.59;;;16.69;62.40
62126;BME280;48112;53.282;6.150;2022-11-15T07:12:56;100841.81;;;16.72;62.38
62126;BME280;48112;53.282;6.150;2022-11-15T07:14:18;100836.00;;;16.70;62.41
62126;BME280;48112;53.282;6.150;2022-11-15T07:15:39;100846.53;;;16.71;62.41
62126;BME280;48112;53.282;6.150;2022-11-15T07:17:03;100848.88;;;16.73;62.39
62126;BME280;48112;53.282;6.150;2022-11-15T07:18:24;100850.00;;;16.72;62.42
62126;BME280;48112;53.282;6.150;2022-11-15T07:19:44;100851.97;;;16.71;62.33
62126;BME280;48112;53.282;6.150;2022-11-15T07:21:07;100853.53;;;16.72;62.47
62126;BME280;48112;53.282;6.150;2022-11-15T07:22:28;100854.31;;;16.73;62.31